sensor_id;sensor_type;location;lat;lon;timestamp;temperature;humidity
52879;DHT22;38747;53.140;6.498;2023-05-15T00:01:48;11.20;99.90
52879;DHT22;38747;53.140;6.498;2023-05-15T00:04:13;11.20;99.90
52879;DHT22;38747;53.140;6.498;2023-05-15T00:06:39;11.10;99.90
52879;DHT22;38747;53.140;6.498;2023-05-15T00:09:05;11.20;99.90
52879;DHT22;38747;53.140;6.498;2023-05-15T00:11:30;11.20;99.90
52879;DHT22;38747;53.140;6.498;2023-05-15T00:13:56;11.10;99.90
52879;DHT22;38747;53.140;6.498;2023-05-15T00:16:21;11.10;99.90
52879;DHT22;38747;53.140;6.498;2023-05-15T00:18:47;11.10;99.90
52879;DHT22;38747;53.140;6.498;2023-05-15T00:21:13;11.00;99.90
52879;DHT22;38747;53.140;6.498;2023-05-15T00:23:38;11.00;99.90
52879;DHT22;38747;53.140;6.498;2023-05-15T00:26:04;11.00;99.90
52879;DHT22;38747;53.140;6.498;2023-05-15T00:28:30;10.90;99.90
52879;DHT22;38747;53.140;6.498;2023-05-15T00:30:55;10.90;99.90
52879;DHT22;38747;53.140;6.498;2023-05-15T00:33:21;11.00;99.90
52879;DHT22;38747;53.140;6.498;2023-05-15T00:35:46;10.90;99.90
52879;DHT22;38747;53.140;6.498;2023-05-15T00:38:12;10.80;99.90
52879;DHT22;38747;53.140;6.498;2023-05-15T00:40:38;10.80;99.90
52879;DHT22;38747;53.140;6.498;2023-05-15T00:43:05;10.90;99.90
52879;DHT22;38747;53.140;6.498;2023-05-15T00:45:33;10.90;99.90
52879;DHT22;38747;53.140;6.498;2023-05-15T00:48:00;10.90;99.90
52879;DHT22;38747;53.140;6.498;2023-05-15T00:50:26;10.90;99.90
52879;DHT22;38747;53.140;6.498;2023-05-15T00:52:52;10.90;99.90
52879;DHT22;38747;53.140;6.498;2023-05-15T00:55:19;10.80;99.90
52879;DHT22;38747;53.140;6.498;2023-05-15T00:57:46;10.80;99.90
52879;DHT22;38747;53.140;6.498;2023-05-15T01:00:13;10.80;99.90
52879;DHT22;38747;53.140;6.498;2023-05-15T01:02:41;10.90;99.90
52879;DHT22;38747;53.140;6.498;2023-05-15T01:05:07;10.80;99.90
52879;DHT22;38747;53.140;6.498;2023-05-15T01:07:37;10.90;99.90
52879;DHT22;38747;53.140;6.498;2023-05-15T01:10:05;10.90;99.90
52879;DHT22;38747;53.140;6.498;2023-05-15T01:12:32;10.90;99.90
52879;DHT22;38747;53.140;6.498;2023-05-15T01:14:58;10.90;99.90
52879;DHT22;38747;53.140;6.498;2023-05-15T01:17:24;10.80;99.90
52879;DHT22;38747;53.140;6.498;2023-05-15T01:19:50;10.80;99.90
52879;DHT22;38747;53.140;6.498;2023-05-15T01:22:32;10.80;99.90
52879;DHT22;38747;53.140;6.498;2023-05-15T01:28:02;10.80;99.90
52879;DHT22;38747;53.140;6.498;2023-05-15T01:30:35;10.80;99.90
52879;DHT22;38747;53.140;6.498;2023-05-15T01:35:42;10.70;99.90
52879;DHT22;38747;53.140;6.498;2023-05-15T01:38:26;10.70;99.90
52879;DHT22;38747;53.140;6.498;2023-05-15T01:40:58;10.70;99.90
52879;DHT22;38747;53.140;6.498;2023-05-15T01:43:31;10.70;99.90
52879;DHT22;38747;53.140;6.498;2023-05-15T01:45:58;10.70;99.90
52879;DHT22;38747;53.140;6.498;2023-05-15T01:48:25;10.70;99.90
52879;DHT22;38747;53.140;6.498;2023-05-15T01:50:53;10.70;99.90
52879;DHT22;38747;53.140;6.498;2023-05-15T01:53:23;10.60;99.90
52879;DHT22;38747;53.140;6.498;2023-05-15T01:55:49;10.70;99.90
52879;DHT22;38747;53.140;6.498;2023-05-15T01:58:16;10.60;99.90
52879;DHT22;38747;53.140;6.498;2023-05-15T02:00:43;10.60;99.90
52879;DHT22;38747;53.140;6.498;2023-05-15T02:03:10;10.60;99.90
52879;DHT22;38747;53.140;6.498;2023-05-15T02:05:36;10.70;99.90
52879;DHT22;38747;53.140;6.498;2023-05-15T02:08:02;10.60;99.90
52879;DHT22;38747;53.140;6.498;2023-05-15T02:10:30;10.60;99.90
52879;DHT22;38747;53.140;6.498;2023-05-15T02:12:56;10.60;99.90
52879;DHT22;38747;53.140;6.498;2023-05-15T02:15:22;10.60;99.90
52879;DHT22;38747;53.140;6.498;2023-05-15T02:17:49;10.50;99.90
52879;DHT22;38747;53.140;6.498;2023-05-15T02:20:15;10.50;99.90
52879;DHT22;38747;53.140;6.498;2023-05-15T02:22:41;10.50;99.90
52879;DHT22;38747;53.140;6.498;2023-05-15T02:25:07;10.50;99.90
52879;DHT22;38747;53.140;6.498;2023-05-15T02:27:42;10.50;99.90
52879;DHT22;38747;53.140;6.498;2023-05-15T02:33:30;10.40;99.90
52879;DHT22;38747;53.140;6.498;2023-05-15T02:36:03;10.40;99.90
52879;DHT22;38747;53.140;6.498;2023-05-15T02:38:43;10.40;99.90
52879;DHT22;38747;53.140;6.498;2023-05-15T02:41:11;10.40;99.90
52879;DHT22;38747;53.140;6.498;2023-05-15T02:43:38;10.30;99.90
52879;DHT22;38747;53.140;6.498;2023-05-15T02:46:06;10.40;99.90
52879;DHT22;38747;53.140;6.498;2023-05-15T02:48:33;10.30;99.90
52879;DHT22;38747;53.140;6.498;2023-05-15T02:51:00;10.30;99.90
52879;DHT22;38747;53.140;6.498;2023-05-15T02:53:26;10.30;99.90
52879;DHT22;38747;53.140;6.498;2023-05-15T02:55:52;10.30;99.90
52879;DHT22;38747;53.140;6.498;2023-05-15T02:58:18;10.20;99.90
52879;DHT22;38747;53.140;6.498;2023-05-15T03:00:44;10.10;99.90
52879;DHT22;38747;53.140;6.498;2023-05-15T03:03:09;10.10;99.90
52879;DHT22;38747;53.140;6.498;2023-05-15T03:05:35;10.00;99.90
52879;DHT22;38747;53.140;6.498;2023-05-15T03:08:00;10.00;99.90
52879;DHT22;38747;53.140;6.498;2023-05-15T03:10:26;9.90;99.90
52879;DHT22;38747;53.140;6.498;2023-05-15T03:12:53;9.90;99.90
52879;DHT22;38747;53.140;6.498;2023-05-15T03:15:19;9.90;99.90
52879;DHT22;38747;53.140;6.498;2023-05-15T03:17:45;9.90;99.90
52879;DHT22;38747;53.140;6.498;2023-05-15T03:20:11;9.80;99.90
52879;DHT22;38747;53.140;6.498;2023-05-15T03:22:40;9.70;99.90
52879;DHT22;38747;53.140;6.498;2023-05-15T03:25:09;9.60;99.90
52879;DHT22;38747;53.140;6.498;2023-05-15T03:27:34;9.60;99.90
52879;DHT22;38747;53.140;6.498;2023-05-15T03:30:01;9.50;99.90
52879;DHT22;38747;53.140;6.498;2023-05-15T03:32:26;9.50;99.90
52879;DHT22;38747;53.140;6.498;2023-05-15T03:34:52;9.60;99.90
52879;DHT22;38747;53.140;6.498;2023-05-15T03:37:18;9.60;99.90
52879;DHT22;38747;53.140;6.498;2023-05-15T03:39:43;9.50;99.90
52879;DHT22;38747;53.140;6.498;2023-05-15T03:42:09;9.60;99.90
52879;DHT22;38747;53.140;6.498;2023-05-15T03:44:35;9.60;99.90
52879;DHT22;38747;53.140;6.498;2023-05-15T03:47:00;9.60;99.90
52879;DHT22;38747;53.140;6.498;2023-05-15T03:49:28;9.60;99.90
52879;DHT22;38747;53.140;6.498;2023-05-15T03:51:55;9.60;99.90
52879;DHT22;38747;53.140;6.498;2023-05-15T03:54:21;9.60;99.90
52879;DHT22;38747;53.140;6.498;2023-05-15T03:56:47;9.60;99.90
52879;DHT22;38747;53.140;6.498;2023-05-15T03:59:12;9.60;99.90
52879;DHT22;38747;53.140;6.498;2023-05-15T04:01:38;9.70;99.90
52879;DHT22;38747;53.140;6.498;2023-05-15T04:04:04;9.60;99.90
52879;DHT22;38747;53.140;6.498;2023-05-15T04:06:30;9.60;99.90
52879;DHT22;38747;53.140;6.498;2023-05-15T04:08:55;9.70;99.90
52879;DHT22;38747;53.140;6.498;2023-05-15T04:11:24;9.60;99.90
52879;DHT22;38747;53.140;6.498;2023-05-15T04:13:50;9.60;99.90
52879;DHT22;38747;53.140;6.498;2023-05-15T04:16:16;9.70;99.90
52879;DHT22;38747;53.140;6.498;2023-05-15T04:18:41;9.60;99.90
52879;DHT22;38747;53.140;6.498;2023-05-15T04:21:07;9.70;99.90
52879;DHT22;38747;53.140;6.498;2023-05-15T04:23:33;9.70;99.90
52879;DHT22;38747;53.140;6.498;2023-05-15T04:25:58;9.80;99.90
52879;DHT22;38747;53.140;6.498;2023-05-15T04:28:24;9.80;99.90
52879;DHT22;38747;53.140;6.498;2023-05-15T04:30:50;9.80;99.90
52879;DHT22;38747;53.140;6.498;2023-05-15T04:33:16;9.80;99.90
52879;DHT22;38747;53.140;6.498;2023-05-15T04:35:41;9.80;99.90
52879;DHT22;38747;53.140;6.498;2023-05-15T04:38:07;9.80;99.90
52879;DHT22;38747;53.140;6.498;2023-05-15T04:40:33;9.80;99.90
52879;DHT22;38747;53.140;6.498;2023-05-15T04:42:58;9.90;99.90
52879;DHT22;38747;53.140;6.498;2023-05-15T04:45:24;9.80;99.90
52879;DHT22;38747;53.140;6.498;2023-05-15T04:47:50;9.90;99.90
52879;DHT22;38747;53.140;6.498;2023-05-15T04:50:15;9.80;99.90
52879;DHT22;38747;53.140;6.498;2023-05-15T04:52:41;9.90;99.90
52879;DHT22;38747;53.140;6.498;2023-05-15T04:55:08;10.00;99.90
52879;DHT22;38747;53.140;6.498;2023-05-15T04:57:34;10.00;99.90
52879;DHT22;38747;53.140;6.498;2023-05-15T05:00:00;10.00;99.90
52879;DHT22;38747;53.140;6.498;2023-05-15T05:02:26;10.10;99.90
52879;DHT22;38747;53.140;6.498;2023-05-15T05:04:52;10.10;99.90
52879;DHT22;38747;53.140;6.498;2023-05-15T05:07:17;10.20;99.90
52879;DHT22;38747;53.140;6.498;2023-05-15T05:09:43;10.20;99.90
52879;DHT22;38747;53.140;6.498;2023-05-15T05:12:09;10.20;99.90
52879;DHT22;38747;53.140;6.498;2023-05-15T05:14:35;10.30;99.90
52879;DHT22;38747;53.140;6.498;2023-05-15T05:17:01;10.30;99.90
52879;DHT22;38747;53.140;6.498;2023-05-15T05:19:27;10.40;99.90
52879;DHT22;38747;53.140;6.498;2023-05-15T05:21:54;10.50;99.90
52879;DHT22;38747;53.140;6.498;2023-05-15T05:24:19;10.50;99.90
52879;DHT22;38747;53.140;6.498;2023-05-15T05:26:46;10.60;99.90
52879;DHT22;38747;53.140;6.498;2023-05-15T05:29:12;10.60;99.90
52879;DHT22;38747;53.140;6.498;2023-05-15T05:31:37;10.60;99.90
52879;DHT22;38747;53.140;6.498;2023-05-15T05:34:03;10.60;99.90
52879;DHT22;38747;53.140;6.498;2023-05-15T05:36:29;10.70;99.90
52879;DHT22;38747;53.140;6.498;2023-05-15T05:38:54;10.70;99.90
52879;DHT22;38747;53.140;6.498;2023-05-15T05:41:20;10.80;99.90
52879;DHT22;38747;53.140;6.498;2023-05-15T05:43:46;10.90;99.90
52879;DHT22;38747;53.140;6.498;2023-05-15T05:46:11;10.90;99.90
52879;DHT22;38747;53.140;6.498;2023-05-15T05:48:37;10.80;99.90
52879;DHT22;38747;53.140;6.498;2023-05-15T05:51:03;10.90;99.90
52879;DHT22;38747;53.140;6.498;2023-05-15T05:53:28;10.90;99.90
52879;DHT22;38747;53.140;6.498;2023-05-15T05:55:54;10.90;99.90
52879;DHT22;38747;53.140;6.498;2023-05-15T05:58:20;10.90;99.90
52879;DHT22;38747;53.140;6.498;2023-05-15T06:00:46;11.00;99.90
52879;DHT22;38747;53.140;6.498;2023-05-15T06:03:11;11.10;99.90
52879;DHT22;38747;53.140;6.498;2023-05-15T06:05:37;11.10;99.90
52879;DHT22;38747;53.140;6.498;2023-05-15T06:08:03;11.20;99.90
52879;DHT22;38747;53.140;6.498;2023-05-15T06:10:29;11.20;99.90
52879;DHT22;38747;53.140;6.498;2023-05-15T06:12:55;11.30;99.90
52879;DHT22;38747;53.140;6.498;2023-05-15T06:15:21;11.40;99.90
52879;DHT22;38747;53.140;6.498;2023-05-15T06:17:46;11.50;99.90
52879;DHT22;38747;53.140;6.498;2023-05-15T06:20:12;11.50;99.90
52879;DHT22;38747;53.140;6.498;2023-05-15T06:22:38;11.60;99.90
52879;DHT22;38747;53.140;6.498;2023-05-15T06:25:05;11.60;99.90
52879;DHT22;38747;53.140;6.498;2023-05-15T06:27:31;11.70;99.90
52879;DHT22;38747;53.140;6.498;2023-05-15T06:29:57;11.80;99.90
52879;DHT22;38747;53.140;6.498;2023-05-15T06:32:23;11.90;99.90
52879;DHT22;38747;53.140;6.498;2023-05-15T06:34:49;11.90;99.90
52879;DHT22;38747;53.140;6.498;2023-05-15T06:37:14;11.90;99.90
52879;DHT22;38747;53.140;6.498;2023-05-15T06:39:40;11.90;99.90
52879;DHT22;38747;53.140;6.498;2023-05-15T06:42:06;11.80;99.90
52879;DHT22;38747;53.140;6.498;2023-05-15T06:44:32;11.90;99.90
52879;DHT22;38747;53.140;6.498;2023-05-15T06:46:58;11.90;99.90
52879;DHT22;38747;53.140;6.498;2023-05-15T06:49:24;11.90;99.90
52879;DHT22;38747;53.140;6.498;2023-05-15T06:51:50;12.00;99.90
52879;DHT22;38747;53.140;6.498;2023-05-15T06:54:16;12.00;99.90
52879;DHT22;38747;53.140;6.498;2023-05-15T06:56:42;12.10;99.90
52879;DHT22;38747;53.140;6.498;2023-05-15T06:59:08;12.10;99.90
52879;DHT22;38747;53.140;6.498;2023-05-15T07:01:34;12.00;99.90
52879;DHT22;38747;53.140;6.498;2023-05-15T07:03:59;12.00;99.90
52879;DHT22;38747;53.140;6.498;2023-05-15T07:06:25;12.10;99.90
52879;DHT22;38747;53.140;6.498;2023-05-15T07:08:51;12.10;99.90
52879;DHT22;38747;53.140;6.498;2023-05-15T07:11:17;12.10;99.90
52879;DHT22;38747;53.140;6.498;2023-05-15T07:13:42;12.20;99.90
52879;DHT22;38747;53.140;6.498;2023-05-15T07:16:11;12.20;99.90
52879;DHT22;38747;53.140;6.498;2023-05-15T07:18:36;12.20;99.90
52879;DHT22;38747;53.140;6.498;2023-05-15T07:21:02;12.30;99.90
52879;DHT22;38747;53.140;6.498;2023-05-15T07:23:27;12.30;99.90
52879;DHT22;38747;53.140;6.498;2023-05-15T07:25:54;12.40;99.90
52879;DHT22;38747;53.140;6.498;2023-05-15T07:28:20;12.60;99.90
52879;DHT22;38747;53.140;6.498;2023-05-15T07:30:45;12.80;99.90
52879;DHT22;38747;53.140;6.498;2023-05-15T07:33:11;12.90;99.90
52879;DHT22;38747;53.140;6.498;2023-05-15T07:35:37;13.00;99.90
52879;DHT22;38747;53.140;6.498;2023-05-15T07:38:05;12.90;99.90
52879;DHT22;38747;53.140;6.498;2023-05-15T07:40:31;13.00;99.90
52879;DHT22;38747;53.140;6.498;2023-05-15T07:42:57;13.00;99.90
52879;DHT22;38747;53.140;6.498;2023-05-15T07:45:23;13.00;99.90
52879;DHT22;38747;53.140;6.498;2023-05-15T07:47:49;12.90;99.90
52879;DHT22;38747;53.140;6.498;2023-05-15T07:50:15;13.00;99.90
52879;DHT22;38747;53.140;6.498;2023-05-15T07:52:41;13.20;99.90
52879;DHT22;38747;53.140;6.498;2023-05-15T07:55:08;13.20;99.90
52879;DHT22;38747;53.140;6.498;2023-05-15T07:57:34;13.30;99.90
52879;DHT22;38747;53.140;6.498;2023-05-15T08:00:00;13.30;99.90
52879;DHT22;38747;53.140;6.498;2023-05-15T08:02:31;13.20;99.90
52879;DHT22;38747;53.140;6.498;2023-05-15T08:04:56;13.30;99.90
52879;DHT22;38747;53.140;6.498;2023-05-15T08:07:22;13.30;99.90
52879;DHT22;38747;53.140;6.498;2023-05-15T08:09:48;13.20;99.90
52879;DHT22;38747;53.140;6.498;2023-05-15T08:12:18;13.20;99.90
52879;DHT22;38747;53.140;6.498;2023-05-15T08:14:53;13.10;99.90
52879;DHT22;38747;53.140;6.498;2023-05-15T08:17:19;13.10;99.90
52879;DHT22;38747;53.140;6.498;2023-05-15T08:19:45;13.10;99.90
52879;DHT22;38747;53.140;6.498;2023-05-15T08:22:11;13.10;99.90
52879;DHT22;38747;53.140;6.498;2023-05-15T08:24:38;13.20;99.90
52879;DHT22;38747;53.140;6.498;2023-05-15T08:27:04;13.20;99.90
52879;DHT22;38747;53.140;6.498;2023-05-15T08:29:31;13.20;99.90
52879;DHT22;38747;53.140;6.498;2023-05-15T08:31:57;13.20;99.90
52879;DHT22;38747;53.140;6.498;2023-05-15T08:34:23;13.30;99.90
52879;DHT22;38747;53.140;6.498;2023-05-15T08:36:49;13.40;99.90
52879;DHT22;38747;53.140;6.498;2023-05-15T08:39:15;13.50;99.90
52879;DHT22;38747;53.140;6.498;2023-05-15T08:44:29;13.70;99.90
52879;DHT22;38747;53.140;6.498;2023-05-15T08:46:56;13.60;99.90
52879;DHT22;38747;53.140;6.498;2023-05-15T08:49:38;13.70;99.90
52879;DHT22;38747;53.140;6.498;2023-05-15T08:52:07;13.80;99.90
52879;DHT22;38747;53.140;6.498;2023-05-15T08:54:34;14.00;99.90
52879;DHT22;38747;53.140;6.498;2023-05-15T08:57:01;14.10;99.90
52879;DHT22;38747;53.140;6.498;2023-05-15T08:59:27;14.20;99.90
52879;DHT22;38747;53.140;6.498;2023-05-15T09:01:53;14.20;99.90
52879;DHT22;38747;53.140;6.498;2023-05-15T09:04:20;14.40;99.90
52879;DHT22;38747;53.140;6.498;2023-05-15T09:06:46;14.50;99.90
52879;DHT22;38747;53.140;6.498;2023-05-15T09:09:12;14.70;99.90
52879;DHT22;38747;53.140;6.498;2023-05-15T09:11:45;14.90;99.90
52879;DHT22;38747;53.140;6.498;2023-05-15T09:14:12;15.00;99.90
52879;DHT22;38747;53.140;6.498;2023-05-15T09:16:38;15.10;99.90
52879;DHT22;38747;53.140;6.498;2023-05-15T09:19:05;15.30;99.90
52879;DHT22;38747;53.140;6.498;2023-05-15T09:21:31;15.50;99.90
52879;DHT22;38747;53.140;6.498;2023-05-15T09:24:22;15.40;99.90
52879;DHT22;38747;53.140;6.498;2023-05-15T09:27:06;15.50;99.90
52879;DHT22;38747;53.140;6.498;2023-05-15T09:29:36;15.70;99.90
52879;DHT22;38747;53.140;6.498;2023-05-15T09:32:07;15.80;99.90
52879;DHT22;38747;53.140;6.498;2023-05-15T09:34:37;15.80;99.90
52879;DHT22;38747;53.140;6.498;2023-05-15T09:37:06;15.90;99.90
52879;DHT22;38747;53.140;6.498;2023-05-15T09:39:32;15.80;99.90
52879;DHT22;38747;53.140;6.498;2023-05-15T09:42:06;15.80;99.90
52879;DHT22;38747;53.140;6.498;2023-05-15T09:44:32;15.90;99.90
52879;DHT22;38747;53.140;6.498;2023-05-15T09:46:59;16.20;99.90
52879;DHT22;38747;53.140;6.498;2023-05-15T09:49:27;16.10;99.90
52879;DHT22;38747;53.140;6.498;2023-05-15T09:51:56;16.20;99.90
52879;DHT22;38747;53.140;6.498;2023-05-15T09:54:24;16.40;99.90
52879;DHT22;38747;53.140;6.498;2023-05-15T09:56:49;16.30;99.90
52879;DHT22;38747;53.140;6.498;2023-05-15T09:59:18;16.30;99.90
52879;DHT22;38747;53.140;6.498;2023-05-15T10:01:48;16.60;99.90
52879;DHT22;38747;53.140;6.498;2023-05-15T10:04:15;16.90;99.90
52879;DHT22;38747;53.140;6.498;2023-05-15T10:06:45;17.00;99.90
52879;DHT22;38747;53.140;6.498;2023-05-15T10:09:11;17.10;99.90
52879;DHT22;38747;53.140;6.498;2023-05-15T10:11:40;17.10;99.90
52879;DHT22;38747;53.140;6.498;2023-05-15T10:14:17;16.80;99.90
52879;DHT22;38747;53.140;6.498;2023-05-15T10:16:44;17.00;99.90
52879;DHT22;38747;53.140;6.498;2023-05-15T10:19:11;16.80;99.90
52879;DHT22;38747;53.140;6.498;2023-05-15T10:21:39;16.70;99.90
52879;DHT22;38747;53.140;6.498;2023-05-15T10:24:06;16.80;99.90
52879;DHT22;38747;53.140;6.498;2023-05-15T10:26:37;17.00;99.90
52879;DHT22;38747;53.140;6.498;2023-05-15T10:29:15;17.10;99.90
52879;DHT22;38747;53.140;6.498;2023-05-15T10:31:41;17.30;99.90
52879;DHT22;38747;53.140;6.498;2023-05-15T10:34:09;17.70;99.90
52879;DHT22;38747;53.140;6.498;2023-05-15T10:36:36;17.70;99.90
52879;DHT22;38747;53.140;6.498;2023-05-15T10:39:05;17.50;99.90
52879;DHT22;38747;53.140;6.498;2023-05-15T10:41:38;17.60;99.90
52879;DHT22;38747;53.140;6.498;2023-05-15T10:44:04;17.70;99.90
52879;DHT22;38747;53.140;6.498;2023-05-15T10:46:32;17.60;99.90
52879;DHT22;38747;53.140;6.498;2023-05-15T10:48:59;17.60;99.90
52879;DHT22;38747;53.140;6.498;2023-05-15T10:51:31;17.20;99.90
52879;DHT22;38747;53.140;6.498;2023-05-15T10:53:59;17.40;99.90
52879;DHT22;38747;53.140;6.498;2023-05-15T10:56:28;17.40;99.90
52879;DHT22;38747;53.140;6.498;2023-05-15T10:58:54;17.30;99.90
52879;DHT22;38747;53.140;6.498;2023-05-15T11:01:28;17.30;99.90
52879;DHT22;38747;53.140;6.498;2023-05-15T11:04:23;17.40;99.90
52879;DHT22;38747;53.140;6.498;2023-05-15T11:07:11;17.10;99.90
52879;DHT22;38747;53.140;6.498;2023-05-15T11:09:38;17.20;99.90
52879;DHT22;38747;53.140;6.498;2023-05-15T11:12:08;16.80;99.90
52879;DHT22;38747;53.140;6.498;2023-05-15T11:14:36;16.80;99.90
52879;DHT22;38747;53.140;6.498;2023-05-15T11:17:09;16.90;99.90
52879;DHT22;38747;53.140;6.498;2023-05-15T11:22:20;16.90;99.90
52879;DHT22;38747;53.140;6.498;2023-05-15T11:25:09;17.20;99.90
52879;DHT22;38747;53.140;6.498;2023-05-15T11:27:37;16.70;99.90
52879;DHT22;38747;53.140;6.498;2023-05-15T11:35:34;16.70;99.90
52879;DHT22;38747;53.140;6.498;2023-05-15T11:38:17;16.40;99.90
52879;DHT22;38747;53.140;6.498;2023-05-15T11:43:21;16.20;99.90
52879;DHT22;38747;53.140;6.498;2023-05-15T11:48:36;16.40;99.90
52879;DHT22;38747;53.140;6.498;2023-05-15T11:51:03;16.40;99.90
52879;DHT22;38747;53.140;6.498;2023-05-15T11:53:31;16.50;99.90
52879;DHT22;38747;53.140;6.498;2023-05-15T11:55:57;16.40;99.90
52879;DHT22;38747;53.140;6.498;2023-05-15T11:58:25;16.80;99.90
52879;DHT22;38747;53.140;6.498;2023-05-15T12:00:52;16.80;99.90
52879;DHT22;38747;53.140;6.498;2023-05-15T12:03:24;17.00;99.90
52879;DHT22;38747;53.140;6.498;2023-05-15T12:05:50;16.70;99.90
52879;DHT22;38747;53.140;6.498;2023-05-15T12:08:17;16.70;99.90
52879;DHT22;38747;53.140;6.498;2023-05-15T12:10:45;16.50;99.90
52879;DHT22;38747;53.140;6.498;2023-05-15T12:13:11;16.80;99.90
52879;DHT22;38747;53.140;6.498;2023-05-15T12:15:38;16.70;99.90
52879;DHT22;38747;53.140;6.498;2023-05-15T12:18:05;16.70;99.90
52879;DHT22;38747;53.140;6.498;2023-05-15T12:20:35;17.00;99.90
52879;DHT22;38747;53.140;6.498;2023-05-15T12:23:02;17.00;99.90
52879;DHT22;38747;53.140;6.498;2023-05-15T12:25:29;17.00;99.90
52879;DHT22;38747;53.140;6.498;2023-05-15T12:27:55;16.90;99.90
52879;DHT22;38747;53.140;6.498;2023-05-15T12:30:21;17.10;99.90
52879;DHT22;38747;53.140;6.498;2023-05-15T12:32:47;17.00;99.90
52879;DHT22;38747;53.140;6.498;2023-05-15T12:35:13;17.10;99.90
52879;DHT22;38747;53.140;6.498;2023-05-15T12:37:40;17.30;99.90
52879;DHT22;38747;53.140;6.498;2023-05-15T12:40:06;17.40;99.90
52879;DHT22;38747;53.140;6.498;2023-05-15T12:42:40;17.70;99.90
52879;DHT22;38747;53.140;6.498;2023-05-15T12:45:12;17.60;99.90
52879;DHT22;38747;53.140;6.498;2023-05-15T12:47:38;17.40;99.90
52879;DHT22;38747;53.140;6.498;2023-05-15T12:50:14;17.30;99.90
52879;DHT22;38747;53.140;6.498;2023-05-15T12:52:55;17.50;99.90
52879;DHT22;38747;53.140;6.498;2023-05-15T12:55:27;17.20;99.90
52879;DHT22;38747;53.140;6.498;2023-05-15T12:57:56;17.10;99.90
52879;DHT22;38747;53.140;6.498;2023-05-15T13:00:23;16.90;99.90
52879;DHT22;38747;53.140;6.498;2023-05-15T13:02:53;17.00;99.90
52879;DHT22;38747;53.140;6.498;2023-05-15T13:05:22;16.70;99.90
52879;DHT22;38747;53.140;6.498;2023-05-15T13:07:47;16.60;99.90
52879;DHT22;38747;53.140;6.498;2023-05-15T13:10:13;16.70;99.90
52879;DHT22;38747;53.140;6.498;2023-05-15T13:12:44;16.40;99.90
52879;DHT22;38747;53.140;6.498;2023-05-15T13:15:30;16.20;99.90
52879;DHT22;38747;53.140;6.498;2023-05-15T13:18:00;16.00;99.90
52879;DHT22;38747;53.140;6.498;2023-05-15T13:20:35;16.10;99.90
52879;DHT22;38747;53.140;6.498;2023-05-15T13:23:02;15.80;99.90
52879;DHT22;38747;53.140;6.498;2023-05-15T13:25:28;15.50;99.90
52879;DHT22;38747;53.140;6.498;2023-05-15T13:27:57;15.50;99.90
52879;DHT22;38747;53.140;6.498;2023-05-15T13:30:24;15.70;99.90
52879;DHT22;38747;53.140;6.498;2023-05-15T13:32:50;15.60;99.90
52879;DHT22;38747;53.140;6.498;2023-05-15T13:35:20;15.70;99.90
52879;DHT22;38747;53.140;6.498;2023-05-15T13:37:46;15.60;99.90
52879;DHT22;38747;53.140;6.498;2023-05-15T13:40:12;15.60;99.90
52879;DHT22;38747;53.140;6.498;2023-05-15T13:42:39;15.60;99.90
52879;DHT22;38747;53.140;6.498;2023-05-15T13:45:10;15.60;99.90
52879;DHT22;38747;53.140;6.498;2023-05-15T13:47:36;15.20;99.90
52879;DHT22;38747;53.140;6.498;2023-05-15T13:50:08;15.30;99.90
52879;DHT22;38747;53.140;6.498;2023-05-15T13:52:34;15.20;99.90
52879;DHT22;38747;53.140;6.498;2023-05-15T13:55:00;14.90;99.90
52879;DHT22;38747;53.140;6.498;2023-05-15T13:57:29;14.90;99.90
52879;DHT22;38747;53.140;6.498;2023-05-15T13:59:54;14.90;99.90
52879;DHT22;38747;53.140;6.498;2023-05-15T14:02:20;14.80;99.90
52879;DHT22;38747;53.140;6.498;2023-05-15T14:04:47;14.90;99.90
52879;DHT22;38747;53.140;6.498;2023-05-15T14:07:13;14.80;99.90
52879;DHT22;38747;53.140;6.498;2023-05-15T14:09:39;14.80;99.90
52879;DHT22;38747;53.140;6.498;2023-05-15T14:12:05;14.70;99.90
52879;DHT22;38747;53.140;6.498;2023-05-15T14:14:31;14.60;99.90
52879;DHT22;38747;53.140;6.498;2023-05-15T14:16:56;14.60;99.90
52879;DHT22;38747;53.140;6.498;2023-05-15T14:19:22;14.50;99.90
52879;DHT22;38747;53.140;6.498;2023-05-15T14:21:48;14.50;99.90
52879;DHT22;38747;53.140;6.498;2023-05-15T14:24:13;14.50;99.90
52879;DHT22;38747;53.140;6.498;2023-05-15T14:26:39;14.50;99.90
52879;DHT22;38747;53.140;6.498;2023-05-15T14:29:05;14.60;99.90
52879;DHT22;38747;53.140;6.498;2023-05-15T14:31:31;14.60;99.90
52879;DHT22;38747;53.140;6.498;2023-05-15T14:33:57;14.60;99.90
52879;DHT22;38747;53.140;6.498;2023-05-15T14:36:22;14.80;99.90
52879;DHT22;38747;53.140;6.498;2023-05-15T14:38:48;14.80;99.90
52879;DHT22;38747;53.140;6.498;2023-05-15T14:41:14;14.80;99.90
52879;DHT22;38747;53.140;6.498;2023-05-15T14:43:40;14.80;99.90
52879;DHT22;38747;53.140;6.498;2023-05-15T14:46:05;14.70;99.90
52879;DHT22;38747;53.140;6.498;2023-05-15T14:48:34;14.80;99.90
52879;DHT22;38747;53.140;6.498;2023-05-15T14:51:00;14.90;99.90
52879;DHT22;38747;53.140;6.498;2023-05-15T14:53:26;15.10;99.90
52879;DHT22;38747;53.140;6.498;2023-05-15T14:55:53;15.10;99.90
52879;DHT22;38747;53.140;6.498;2023-05-15T14:58:19;15.00;99.90
52879;DHT22;38747;53.140;6.498;2023-05-15T15:00:45;14.90;99.90
52879;DHT22;38747;53.140;6.498;2023-05-15T15:03:13;15.00;99.90
52879;DHT22;38747;53.140;6.498;2023-05-15T15:05:38;15.00;99.90
52879;DHT22;38747;53.140;6.498;2023-05-15T15:08:06;14.90;99.90
52879;DHT22;38747;53.140;6.498;2023-05-15T15:10:33;14.80;99.90
52879;DHT22;38747;53.140;6.498;2023-05-15T15:12:59;14.80;99.90
52879;DHT22;38747;53.140;6.498;2023-05-15T15:15:26;14.50;99.90
52879;DHT22;38747;53.140;6.498;2023-05-15T15:17:52;14.30;99.90
52879;DHT22;38747;53.140;6.498;2023-05-15T15:20:19;14.10;99.90
52879;DHT22;38747;53.140;6.498;2023-05-15T15:22:46;13.90;99.90
52879;DHT22;38747;53.140;6.498;2023-05-15T15:25:12;13.90;99.90
52879;DHT22;38747;53.140;6.498;2023-05-15T15:27:38;13.90;99.90
52879;DHT22;38747;53.140;6.498;2023-05-15T15:30:09;13.80;99.90
52879;DHT22;38747;53.140;6.498;2023-05-15T15:32:35;13.90;99.90
52879;DHT22;38747;53.140;6.498;2023-05-15T15:35:01;13.90;99.90
52879;DHT22;38747;53.140;6.498;2023-05-15T15:37:33;13.70;99.90
52879;DHT22;38747;53.140;6.498;2023-05-15T15:40:02;13.60;99.90
52879;DHT22;38747;53.140;6.498;2023-05-15T15:42:30;13.70;99.90
52879;DHT22;38747;53.140;6.498;2023-05-15T15:44:57;13.50;99.90
52879;DHT22;38747;53.140;6.498;2023-05-15T15:47:22;13.40;99.90
52879;DHT22;38747;53.140;6.498;2023-05-15T15:49:52;13.30;99.90
52879;DHT22;38747;53.140;6.498;2023-05-15T15:52:18;13.40;99.90
52879;DHT22;38747;53.140;6.498;2023-05-15T15:54:44;13.30;99.90
52879;DHT22;38747;53.140;6.498;2023-05-15T15:57:17;13.40;99.90
52879;DHT22;38747;53.140;6.498;2023-05-15T15:59:43;13.50;99.90